createdAt,value
2023-06-24T00:01:41.070Z,77.77
2023-06-24T00:03:38.566Z,78.08
2023-06-24T00:05:33.164Z,78.46
2023-06-24T00:07:27.887Z,78.44
2023-06-24T00:09:20.981Z,78.37
2023-06-24T00:11:16.693Z,78.32
2023-06-24T00:13:09.744Z,78.38
2023-06-24T00:15:02.815Z,78.29
2023-06-24T00:16:57.537Z,78.24
2023-06-24T00:18:50.641Z,78.42
2023-06-24T00:20:44.608Z,78.42
2023-06-24T00:22:45.665Z,78.52
2023-06-24T00:24:41.053Z,78.51
2023-06-24T00:26:34.102Z,78.51
2023-06-24T00:28:27.060Z,78.42
2023-06-24T00:30:20.610Z,78.47
2023-06-24T00:32:13.870Z,78.17
2023-06-24T00:34:06.931Z,78.06
2023-06-24T00:35:59.870Z,78.02
2023-06-24T00:37:59.296Z,78.11
2023-06-24T00:39:53.545Z,78.20
2023-06-24T00:41:47.451Z,78.13
2023-06-24T00:43:40.568Z,78.16
2023-06-24T00:45:33.756Z,78.17
2023-06-24T00:47:27.319Z,78.11
2023-06-24T00:49:20.338Z,78.09
2023-06-24T00:51:13.388Z,78.15
2023-06-24T00:53:06.334Z,78.30
2023-06-24T00:54:59.281Z,78.34
2023-06-24T00:56:52.237Z,78.11
2023-06-24T00:58:45.384Z,77.95
2023-06-24T01:00:39.062Z,78.09
2023-06-24T01:02:33.702Z,77.97
2023-06-24T01:04:26.993Z,78.15
2023-06-24T01:06:20.563Z,78.08
2023-06-24T01:08:16.738Z,78.02
2023-06-24T01:10:13.906Z,77.91
2023-06-24T01:12:07.936Z,77.83
2023-06-24T01:14:01.245Z,77.73
2023-06-24T01:15:54.714Z,77.83
2023-06-24T01:18:19.982Z,77.60
2023-06-24T01:20:29.046Z,77.56
2023-06-24T01:22:49.451Z,77.24
2023-06-24T01:24:54.575Z,77.24
2023-06-24T01:27:12.919Z,77.48
2023-06-24T01:29:46.517Z,76.97
2023-06-24T01:31:50.333Z,76.82
2023-06-24T01:33:51.514Z,76.86
2023-06-24T01:35:49.021Z,76.39
2023-06-24T01:37:52.584Z,76.48
2023-06-24T01:39:56.008Z,76.40
2023-06-24T01:42:00.642Z,76.50
2023-06-24T01:43:54.726Z,76.35
2023-06-24T01:45:52.197Z,75.57
2023-06-24T01:47:48.860Z,74.56
2023-06-24T01:49:43.920Z,74.34
2023-06-24T01:51:41.764Z,74.36
2023-06-24T01:53:43.961Z,74.28
2023-06-24T01:55:39.816Z,74.07
2023-06-24T01:57:35.566Z,74.16
2023-06-24T01:59:30.755Z,74.10
2023-06-24T02:01:25.220Z,74.03
2023-06-24T02:03:20.024Z,74.16
2023-06-24T02:05:15.249Z,73.95
2023-06-24T02:07:10.454Z,74.00
2023-06-24T02:09:06.675Z,73.89
2023-06-24T02:11:02.671Z,74.12
2023-06-24T02:12:57.468Z,73.96
2023-06-24T02:14:53.793Z,73.95
2023-06-24T02:16:49.030Z,73.79
2023-06-24T02:18:44.609Z,73.55
2023-06-24T02:20:40.430Z,73.60
2023-06-24T02:22:33.479Z,73.68
2023-06-24T02:24:28.879Z,73.49
2023-06-24T02:26:24.181Z,73.37
2023-06-24T02:28:19.176Z,73.46
2023-06-24T02:32:53.053Z,73.57
2023-06-24T02:34:47.588Z,73.59
2023-06-24T02:36:40.746Z,73.60
2023-06-24T02:38:34.093Z,73.80
2023-06-24T02:40:28.475Z,73.96
2023-06-24T02:42:21.839Z,74.19
2023-06-24T02:44:15.108Z,74.22
2023-06-24T02:46:10.297Z,74.37
2023-06-24T02:48:04.438Z,74.44
2023-06-24T02:49:59.260Z,74.71
2023-06-24T02:51:52.514Z,74.70
2023-06-24T02:53:48.030Z,74.63
2023-06-24T02:55:42.618Z,74.78
2023-06-24T02:57:37.559Z,74.59
2023-06-24T02:59:49.326Z,74.67
2023-06-24T03:01:46.299Z,74.73
2023-06-24T03:03:41.006Z,75.00
2023-06-24T03:05:37.838Z,75.15
2023-06-24T03:07:32.178Z,75.06
2023-06-24T03:09:25.422Z,75.07
2023-06-24T03:11:18.462Z,75.05
2023-06-24T03:13:11.439Z,74.87
2023-06-24T03:15:10.521Z,75.06
2023-06-24T03:17:04.262Z,75.10
2023-06-24T03:18:57.331Z,75.21
2023-06-24T03:20:50.466Z,75.13
2023-06-24T03:22:46.106Z,74.99
2023-06-24T03:24:39.746Z,75.30
2023-06-24T03:26:34.471Z,75.32
2023-06-24T03:28:27.797Z,75.22
2023-06-24T03:30:30.052Z,75.43
2023-06-24T03:32:23.007Z,75.32
2023-06-24T03:34:18.039Z,75.44
2023-06-24T03:36:12.072Z,75.44
2023-06-24T03:38:05.637Z,75.23
2023-06-24T03:39:59.200Z,75.46
2023-06-24T03:41:52.388Z,75.45
2023-06-24T03:43:53.185Z,75.80
2023-06-24T03:45:46.293Z,75.94
2023-06-24T03:47:40.020Z,76.05
2023-06-24T03:49:33.156Z,76.32
2023-06-24T03:51:27.126Z,76.13
2023-06-24T03:53:20.074Z,76.30
2023-06-24T03:55:13.129Z,76.37
2023-06-24T03:57:07.433Z,76.30
2023-06-24T03:59:00.352Z,76.44
2023-06-24T04:00:53.330Z,76.34
2023-06-24T04:02:46.723Z,76.49
2023-06-24T04:04:39.804Z,76.47
2023-06-24T04:06:32.754Z,76.52
2023-06-24T04:08:31.850Z,76.48
2023-06-24T04:10:26.946Z,76.55
2023-06-24T04:12:19.899Z,76.87
2023-06-24T04:14:13.969Z,77.00
2023-06-24T04:16:07.036Z,76.94
2023-06-24T04:18:00.141Z,76.95
2023-06-24T04:19:53.529Z,77.40
2023-06-24T04:21:46.587Z,77.28
2023-06-24T04:23:40.051Z,77.03
2023-06-24T04:25:33.240Z,76.99
2023-06-24T04:27:26.449Z,76.94
2023-06-24T04:29:19.505Z,76.94
2023-06-24T04:31:12.569Z,76.98
2023-06-24T04:33:06.409Z,76.96
2023-06-24T04:35:02.061Z,76.88
2023-06-24T04:36:55.398Z,76.94
2023-06-24T04:38:48.441Z,76.90
2023-06-24T04:40:41.389Z,76.72
2023-06-24T04:42:34.441Z,76.96
2023-06-24T04:44:27.387Z,77.02
2023-06-24T04:46:20.556Z,76.76
2023-06-24T04:48:13.595Z,77.05
2023-06-24T04:50:07.584Z,76.72
2023-06-24T04:52:03.927Z,76.95
2023-06-24T04:53:56.940Z,76.89
2023-06-24T04:55:49.894Z,76.94
2023-06-24T04:57:43.671Z,77.57
2023-06-24T04:59:37.548Z,78.00
2023-06-24T05:01:30.958Z,78.00
2023-06-24T05:03:24.253Z,77.44
2023-06-24T05:05:17.315Z,77.50
2023-06-24T05:07:10.473Z,77.55
2023-06-24T05:09:03.916Z,77.55
2023-06-24T05:10:57.059Z,78.08
2023-06-24T05:12:50.015Z,78.10
2023-06-24T05:14:42.898Z,78.28
2023-06-24T05:16:36.112Z,78.26
2023-06-24T05:18:29.061Z,78.62
2023-06-24T05:20:22.022Z,79.07
2023-06-24T05:22:15.270Z,78.80
2023-06-24T05:24:08.420Z,78.69
2023-06-24T05:26:01.362Z,78.60
2023-06-24T05:27:54.431Z,78.63
2023-06-24T05:29:47.670Z,78.61
2023-06-24T05:31:41.949Z,78.51
2023-06-24T05:33:34.898Z,78.45
2023-06-24T05:35:27.854Z,78.68
2023-06-24T05:37:20.900Z,78.98
2023-06-24T05:39:14.768Z,78.92
2023-06-24T05:41:07.817Z,78.86
2023-06-24T05:43:02.028Z,79.13
2023-06-24T05:44:55.041Z,79.10
2023-06-24T05:46:48.096Z,78.78
2023-06-24T05:48:41.147Z,78.62
2023-06-24T05:50:34.097Z,78.58
2023-06-24T05:52:27.167Z,78.27
2023-06-24T05:54:20.019Z,78.32
2023-06-24T05:56:12.936Z,77.48
2023-06-24T05:58:05.888Z,77.20
2023-06-24T05:59:58.728Z,77.37
2023-06-24T06:01:51.700Z,77.22
2023-06-24T06:03:44.679Z,77.20
2023-06-24T06:05:37.939Z,76.98
2023-06-24T06:07:31.033Z,76.82
2023-06-24T06:09:23.979Z,76.16
2023-06-24T06:11:16.930Z,75.70
2023-06-24T06:13:09.877Z,75.71
2023-06-24T06:15:02.928Z,75.44
2023-06-24T06:16:56.089Z,75.14
2023-06-24T06:18:49.148Z,75.51
2023-06-24T06:20:42.292Z,75.65
2023-06-24T06:22:39.041Z,75.23
2023-06-24T06:24:32.043Z,75.04
2023-06-24T06:26:25.183Z,75.06
2023-06-24T06:28:18.186Z,74.35
2023-06-24T06:30:11.872Z,73.86
2023-06-24T06:32:05.680Z,73.15
2023-06-24T06:33:58.726Z,72.40
2023-06-24T06:35:51.812Z,72.56
2023-06-24T06:37:44.765Z,72.53
2023-06-24T06:39:37.712Z,72.07
2023-06-24T06:41:30.676Z,72.45
2023-06-24T06:43:23.708Z,72.17
2023-06-24T06:45:16.804Z,70.77
2023-06-24T06:47:11.752Z,70.54
2023-06-24T06:49:04.716Z,70.45
2023-06-24T06:50:57.652Z,70.36
2023-06-24T06:52:50.712Z,70.12
2023-06-24T06:54:43.754Z,69.90
2023-06-24T06:56:36.814Z,69.79
2023-06-24T06:58:29.758Z,69.74
2023-06-24T07:00:22.903Z,68.71
2023-06-24T07:02:15.905Z,67.95
2023-06-24T07:04:08.903Z,67.66
2023-06-24T07:06:02.569Z,68.41
2023-06-24T07:07:55.616Z,68.64
2023-06-24T07:09:49.182Z,69.12
2023-06-24T07:11:42.975Z,68.49
2023-06-24T07:13:35.894Z,68.80
2023-06-24T07:15:29.387Z,68.79
2023-06-24T07:17:22.432Z,69.06
2023-06-24T07:19:15.368Z,69.29
2023-06-24T07:21:08.413Z,68.84
2023-06-24T07:23:01.766Z,68.49
2023-06-24T07:24:54.715Z,67.79
2023-06-24T07:26:47.767Z,67.76
2023-06-24T07:28:40.712Z,67.43
2023-06-24T07:30:33.656Z,68.00
2023-06-24T07:32:26.775Z,68.10
2023-06-24T07:34:19.862Z,68.14
2023-06-24T07:36:14.854Z,68.24
2023-06-24T07:38:07.909Z,67.65
2023-06-24T07:40:00.991Z,67.37
2023-06-24T07:41:54.007Z,67.04
2023-06-24T07:43:46.952Z,66.79
2023-06-24T07:45:39.901Z,65.68
2023-06-24T07:47:33.341Z,64.95
2023-06-24T07:49:26.412Z,64.37
2023-06-24T07:51:19.674Z,63.29
2023-06-24T07:53:12.626Z,62.85
2023-06-24T07:55:07.327Z,62.45
2023-06-24T07:57:00.257Z,62.32
2023-06-24T07:58:53.312Z,61.13
2023-06-24T08:00:46.896Z,60.69
2023-06-24T08:02:39.899Z,61.34
2023-06-24T08:04:33.171Z,60.76
2023-06-24T08:06:26.766Z,60.41
2023-06-24T08:08:20.934Z,61.41
2023-06-24T08:10:14.168Z,61.12
2023-06-24T08:12:07.834Z,60.33
2023-06-24T08:14:00.896Z,59.78
2023-06-24T08:15:53.836Z,57.51
2023-06-24T08:17:52.758Z,56.50
2023-06-24T08:19:45.774Z,56.08
2023-06-24T08:21:39.130Z,54.85
2023-06-24T08:23:32.090Z,55.02
2023-06-24T08:25:25.335Z,55.91
2023-06-24T08:27:18.279Z,55.94
2023-06-24T08:29:11.278Z,56.33
2023-06-24T08:31:04.174Z,55.62
2023-06-24T08:32:57.274Z,55.56
2023-06-24T08:34:50.283Z,55.98
2023-06-24T08:36:43.352Z,56.07
2023-06-24T08:38:36.280Z,56.44
2023-06-24T08:40:30.667Z,56.01
2023-06-24T08:42:24.533Z,56.28
2023-06-24T08:44:17.482Z,55.30
2023-06-24T08:46:11.249Z,54.60
2023-06-24T08:48:06.389Z,55.28
2023-06-24T08:50:09.429Z,55.20
2023-06-24T08:52:11.449Z,55.52
2023-06-24T08:54:04.882Z,55.43
2023-06-24T08:55:59.162Z,55.54
2023-06-24T08:57:52.390Z,55.68
2023-06-24T08:59:45.846Z,54.95
2023-06-24T09:01:39.048Z,54.75
2023-06-24T09:03:32.257Z,54.62
2023-06-24T09:05:25.301Z,54.67
2023-06-24T09:07:31.895Z,53.88
2023-06-24T09:09:32.973Z,52.82
2023-06-24T09:11:29.134Z,51.81
2023-06-24T09:13:24.234Z,52.72
2023-06-24T09:15:17.183Z,52.57
2023-06-24T09:17:10.865Z,52.33
2023-06-24T09:19:03.900Z,51.76
2023-06-24T09:20:56.852Z,52.12
2023-06-24T09:22:51.132Z,53.32
2023-06-24T09:24:49.129Z,53.22
2023-06-24T09:26:47.871Z,51.79
2023-06-24T09:28:41.026Z,51.59
2023-06-24T09:30:33.986Z,50.31
2023-06-24T09:32:33.307Z,50.80
2023-06-24T09:34:29.995Z,50.04
2023-06-24T09:36:23.774Z,49.56
2023-06-24T09:38:33.484Z,50.61
2023-06-24T09:40:26.780Z,50.15
2023-06-24T09:42:22.897Z,50.16
2023-06-24T09:44:17.684Z,50.19
2023-06-24T09:46:10.800Z,49.06
2023-06-24T09:48:05.265Z,48.72
2023-06-24T09:49:58.793Z,48.44
2023-06-24T09:52:00.711Z,48.67
2023-06-24T09:53:55.964Z,49.15
2023-06-24T09:55:50.221Z,49.21
2023-06-24T09:57:46.939Z,48.36
2023-06-24T09:59:41.448Z,47.41
2023-06-24T10:01:42.504Z,47.07
2023-06-24T10:03:40.242Z,49.08
2023-06-24T10:05:33.693Z,49.73
2023-06-24T10:07:28.685Z,49.16
2023-06-24T10:09:21.872Z,48.46
2023-06-24T10:11:15.111Z,47.25
2023-06-24T10:13:08.973Z,47.08
2023-06-24T10:15:02.741Z,48.17
2023-06-24T10:17:03.443Z,47.84
2023-06-24T10:19:04.309Z,47.71
2023-06-24T10:20:57.872Z,46.78
2023-06-24T10:22:52.268Z,45.85
2023-06-24T10:24:48.354Z,45.59
2023-06-24T10:26:42.488Z,44.62
2023-06-24T10:29:06.182Z,45.89
2023-06-24T10:31:00.286Z,46.55
2023-06-24T10:32:55.433Z,45.74
2023-06-24T10:34:55.194Z,45.17
2023-06-24T10:37:00.348Z,45.28
2023-06-24T10:38:57.515Z,45.65
2023-06-24T10:40:50.634Z,45.49
2023-06-24T10:42:44.440Z,45.90
2023-06-24T10:44:49.231Z,44.75
2023-06-24T10:46:42.537Z,44.16
2023-06-24T10:48:35.635Z,44.78
2023-06-24T10:50:28.604Z,44.84
2023-06-24T10:52:23.171Z,45.03
2023-06-24T10:54:16.017Z,45.52
2023-06-24T10:56:10.027Z,45.72
2023-06-24T10:58:13.814Z,44.65
2023-06-24T11:00:07.553Z,46.73
2023-06-24T11:02:00.431Z,46.14
2023-06-24T11:03:53.457Z,45.17
2023-06-24T11:05:47.839Z,44.70
2023-06-24T11:07:41.813Z,46.60
2023-06-24T11:09:34.961Z,46.31
2023-06-24T11:11:29.961Z,45.23
2023-06-24T11:13:24.083Z,43.32
2023-06-24T11:15:17.227Z,43.63
2023-06-24T11:17:10.542Z,43.50
2023-06-24T11:19:06.328Z,43.31
2023-06-24T11:20:59.581Z,44.20
2023-06-24T11:22:52.663Z,44.06
2023-06-24T11:24:45.611Z,43.90
2023-06-24T11:26:39.916Z,43.90
2023-06-24T11:28:34.013Z,44.02
2023-06-24T11:30:27.372Z,44.40
2023-06-24T11:32:24.570Z,44.31
2023-06-24T11:34:18.647Z,44.61
2023-06-24T11:36:12.229Z,43.94
2023-06-24T11:38:06.619Z,42.82
2023-06-24T11:40:21.225Z,43.63
2023-06-24T11:42:15.486Z,44.77
2023-06-24T11:44:12.667Z,43.95
2023-06-24T11:46:06.274Z,44.33
2023-06-24T11:48:06.109Z,44.32
2023-06-24T11:49:59.826Z,44.16
2023-06-24T11:51:54.130Z,42.78
2023-06-24T11:53:47.461Z,42.70
2023-06-24T11:55:40.858Z,42.90
2023-06-24T11:57:53.638Z,42.89
2023-06-24T11:59:52.963Z,44.73
2023-06-24T12:02:00.845Z,43.41
2023-06-24T12:03:54.724Z,41.82
2023-06-24T12:05:48.608Z,42.81
2023-06-24T12:07:41.617Z,43.34
2023-06-24T12:09:34.563Z,43.55
2023-06-24T12:11:27.478Z,43.44
2023-06-24T12:13:22.785Z,43.24
2023-06-24T12:15:16.075Z,43.68
2023-06-24T12:17:09.120Z,43.80
2023-06-24T12:19:02.373Z,43.36
2023-06-24T12:20:56.218Z,42.45
2023-06-24T12:23:08.650Z,42.83
2023-06-24T12:25:01.867Z,43.29
2023-06-24T12:26:58.435Z,43.43
2023-06-24T12:28:51.506Z,42.96
2023-06-24T12:30:49.306Z,42.95
2023-06-24T12:32:42.756Z,43.05
2023-06-24T12:34:39.856Z,42.07
2023-06-24T12:36:33.447Z,41.84
2023-06-24T12:38:32.668Z,41.76
2023-06-24T12:40:26.005Z,41.52
2023-06-24T12:42:21.815Z,41.70
2023-06-24T12:44:15.457Z,41.73
2023-06-24T12:46:11.578Z,42.44
2023-06-24T12:48:05.005Z,43.16
2023-06-24T12:49:58.197Z,43.07
2023-06-24T12:51:53.798Z,43.95
2023-06-24T12:53:51.233Z,44.24
2023-06-24T12:55:48.187Z,44.70
2023-06-24T12:57:47.191Z,44.85
2023-06-24T12:59:40.411Z,44.97
2023-06-24T13:01:36.331Z,45.07
2023-06-24T13:03:29.329Z,45.04
2023-06-24T13:05:23.792Z,44.42
2023-06-24T13:07:17.369Z,44.14
2023-06-24T13:09:10.338Z,44.01
2023-06-24T13:11:03.378Z,43.81
2023-06-24T13:12:58.174Z,43.49
2023-06-24T13:14:51.402Z,43.32
2023-06-24T13:16:44.448Z,43.21
2023-06-24T13:18:37.438Z,44.27
2023-06-24T13:20:30.446Z,43.83
2023-06-24T13:22:23.601Z,44.50
2023-06-24T13:24:17.059Z,44.80
2023-06-24T13:26:10.111Z,44.53
2023-06-24T13:28:03.368Z,44.25
2023-06-24T13:29:56.429Z,44.35
2023-06-24T13:31:49.369Z,45.20
2023-06-24T13:33:42.517Z,45.83
2023-06-24T13:35:35.577Z,44.96
2023-06-24T13:37:28.526Z,44.83
2023-06-24T13:39:24.965Z,44.63
2023-06-24T13:41:18.102Z,44.06
2023-06-24T13:43:11.152Z,43.38
2023-06-24T13:45:04.817Z,42.86
2023-06-24T13:46:57.798Z,43.12
2023-06-24T13:48:51.153Z,43.67
2023-06-24T13:50:44.099Z,43.88
2023-06-24T13:52:37.121Z,44.96
2023-06-24T13:54:34.030Z,44.58
2023-06-24T13:56:27.837Z,45.08
2023-06-24T13:58:20.777Z,44.01
2023-06-24T14:00:14.657Z,43.95
2023-06-24T14:02:10.137Z,43.98
2023-06-24T14:04:03.322Z,44.69
2023-06-24T14:05:58.029Z,44.42
2023-06-24T14:07:50.952Z,44.43
2023-06-24T14:09:44.042Z,44.63
2023-06-24T14:11:37.764Z,44.98
2023-06-24T14:13:31.125Z,45.01
2023-06-24T14:15:24.096Z,45.80
2023-06-24T14:17:17.257Z,45.95
2023-06-24T14:19:10.327Z,45.34
2023-06-24T14:21:05.459Z,45.13
2023-06-24T14:22:58.525Z,44.99
2023-06-24T14:24:51.375Z,45.26
2023-06-24T14:26:45.259Z,45.46
2023-06-24T14:28:38.292Z,45.62
2023-06-24T14:30:31.613Z,45.77
2023-06-24T14:32:25.258Z,45.74
2023-06-24T14:34:19.918Z,45.66
2023-06-24T14:36:12.862Z,44.94
2023-06-24T14:38:06.487Z,45.22
2023-06-24T14:39:59.565Z,44.94
2023-06-24T14:41:52.614Z,45.53
2023-06-24T14:43:45.675Z,45.71
2023-06-24T14:45:38.614Z,45.67
2023-06-24T14:47:32.364Z,45.89
2023-06-24T14:49:25.356Z,45.30
2023-06-24T14:51:18.299Z,46.09
2023-06-24T14:53:11.237Z,45.54
2023-06-24T14:55:04.489Z,45.24
2023-06-24T14:56:58.145Z,45.18
2023-06-24T14:58:52.715Z,45.70
2023-06-24T15:00:48.449Z,45.52
2023-06-24T15:02:41.484Z,45.83
2023-06-24T15:04:36.591Z,45.31
2023-06-24T15:06:30.464Z,45.15
2023-06-24T15:08:23.409Z,44.80
2023-06-24T15:10:16.481Z,44.94
2023-06-24T15:12:09.721Z,44.76
2023-06-24T15:14:02.869Z,44.70
2023-06-24T15:15:57.590Z,44.48
2023-06-24T15:17:50.634Z,44.50
2023-06-24T15:19:43.567Z,45.28
2023-06-24T15:21:37.584Z,44.83
2023-06-24T15:23:30.889Z,45.09
2023-06-24T15:25:23.939Z,44.54
2023-06-24T15:27:16.996Z,45.20
2023-06-24T15:29:09.952Z,45.56
2023-06-24T15:31:02.991Z,45.46
2023-06-24T15:32:56.086Z,45.25
2023-06-24T15:34:49.208Z,45.30
2023-06-24T15:36:42.249Z,45.79
2023-06-24T15:38:35.127Z,46.38
2023-06-24T15:40:28.140Z,46.20
2023-06-24T15:42:21.099Z,45.85
2023-06-24T15:44:14.139Z,46.03
2023-06-24T15:46:07.599Z,46.52
2023-06-24T15:48:00.911Z,46.35
2023-06-24T15:49:54.110Z,45.96
2023-06-24T15:51:47.466Z,45.74
2023-06-24T15:53:40.520Z,45.82
2023-06-24T15:55:33.672Z,45.10
2023-06-24T15:57:29.059Z,45.67
2023-06-24T15:59:24.277Z,45.36
2023-06-24T16:01:17.458Z,45.20
2023-06-24T16:03:10.882Z,45.61
2023-06-24T16:05:09.694Z,46.02
2023-06-24T16:07:02.655Z,46.25
2023-06-24T16:08:55.983Z,46.28
2023-06-24T16:10:48.882Z,45.71
2023-06-24T16:12:41.892Z,45.72
2023-06-24T16:14:34.828Z,45.98
2023-06-24T16:16:27.788Z,46.21
2023-06-24T16:18:20.622Z,46.09
2023-06-24T16:20:17.563Z,45.73
2023-06-24T16:22:10.627Z,46.24
2023-06-24T16:24:04.280Z,46.34
2023-06-24T16:25:57.429Z,46.39
2023-06-24T16:27:50.381Z,46.35
2023-06-24T16:29:43.430Z,45.98
2023-06-24T16:31:36.505Z,45.55
2023-06-24T16:33:29.633Z,45.22
2023-06-24T16:35:22.715Z,44.77
2023-06-24T16:37:15.631Z,44.98
2023-06-24T16:39:08.599Z,45.27
2023-06-24T16:41:02.060Z,45.33
2023-06-24T16:42:55.606Z,45.40
2023-06-24T16:44:48.663Z,45.13
2023-06-24T16:46:41.773Z,45.74
2023-06-24T16:48:34.855Z,45.45
2023-06-24T16:50:27.812Z,45.34
2023-06-24T16:52:20.862Z,45.77
2023-06-24T16:54:14.113Z,45.66
2023-06-24T16:56:07.224Z,45.76
2023-06-24T16:58:00.144Z,45.60
2023-06-24T16:59:53.092Z,45.36
2023-06-24T17:01:46.108Z,45.98
2023-06-24T17:03:38.990Z,46.34
2023-06-24T17:05:31.829Z,46.78
2023-06-24T17:07:24.784Z,46.28
2023-06-24T17:09:17.906Z,46.28
2023-06-24T17:11:10.867Z,46.15
2023-06-24T17:13:03.909Z,46.66
2023-06-24T17:14:56.951Z,46.74
2023-06-24T17:16:49.910Z,46.66
2023-06-24T17:18:42.852Z,46.51
2023-06-24T17:20:36.211Z,46.86
2023-06-24T17:22:29.276Z,47.59
2023-06-24T17:24:24.091Z,47.58
2023-06-24T17:26:17.203Z,47.67
2023-06-24T17:28:10.258Z,47.74
2023-06-24T17:30:04.434Z,48.05
2023-06-24T17:31:57.486Z,47.79
2023-06-24T17:33:50.434Z,48.16
2023-06-24T17:35:43.592Z,48.20
2023-06-24T17:37:36.479Z,48.44
2023-06-24T17:39:29.482Z,48.77
2023-06-24T17:41:24.380Z,48.65
2023-06-24T17:43:17.426Z,48.49
2023-06-24T17:45:10.473Z,48.82
2023-06-24T17:47:03.743Z,48.58
2023-06-24T17:48:56.553Z,48.95
2023-06-24T17:50:49.698Z,49.14
2023-06-24T17:52:42.881Z,49.13
2023-06-24T17:54:35.834Z,49.47
2023-06-24T17:56:29.845Z,49.09
2023-06-24T17:58:22.964Z,49.48
2023-06-24T18:00:18.397Z,49.77
2023-06-24T18:02:12.189Z,49.82
2023-06-24T18:04:05.485Z,49.48
2023-06-24T18:05:58.531Z,49.79
2023-06-24T18:07:51.599Z,50.02
2023-06-24T18:09:44.736Z,50.18
2023-06-24T18:11:37.685Z,50.08
2023-06-24T18:13:31.045Z,50.05
2023-06-24T18:15:24.722Z,50.26
2023-06-24T18:17:20.148Z,50.43
2023-06-24T18:19:14.184Z,50.32
2023-06-24T18:21:07.136Z,50.11
2023-06-24T18:23:00.185Z,50.23
2023-06-24T18:24:54.770Z,50.64
2023-06-24T18:26:50.418Z,50.47
2023-06-24T18:28:49.819Z,50.48
2023-06-24T18:30:42.850Z,50.90
2023-06-24T18:32:37.678Z,50.55
2023-06-24T18:34:34.321Z,50.87
2023-06-24T18:36:29.063Z,50.92
2023-06-24T18:38:22.000Z,50.91
2023-06-24T18:40:14.957Z,51.22
2023-06-24T18:42:09.443Z,51.45
2023-06-24T18:44:04.247Z,51.48
2023-06-24T18:45:57.173Z,51.40
2023-06-24T18:47:59.397Z,51.56
2023-06-24T18:49:52.959Z,51.55
2023-06-24T18:51:46.797Z,51.69
2023-06-24T18:53:39.708Z,51.81
2023-06-24T18:55:35.745Z,51.75
2023-06-24T18:57:28.703Z,51.93
2023-06-24T18:59:21.637Z,51.90
2023-06-24T19:01:14.584Z,52.31
2023-06-24T19:03:07.613Z,52.64
2023-06-24T19:05:00.910Z,52.62
2023-06-24T19:06:53.992Z,52.32
2023-06-24T19:08:48.729Z,52.27
2023-06-24T19:10:41.678Z,52.19
2023-06-24T19:12:34.629Z,52.60
2023-06-24T19:14:28.829Z,52.07
2023-06-24T19:16:22.363Z,52.01
2023-06-24T19:18:15.333Z,52.22
2023-06-24T19:20:09.282Z,52.28
2023-06-24T19:22:04.912Z,52.13
2023-06-24T19:23:59.397Z,52.24
2023-06-24T19:25:52.432Z,52.32
2023-06-24T19:27:45.392Z,52.51
2023-06-24T19:29:38.326Z,52.34
2023-06-24T19:31:31.482Z,52.20
2023-06-24T19:33:28.017Z,52.35
2023-06-24T19:35:20.968Z,52.58
2023-06-24T19:37:14.114Z,52.15
2023-06-24T19:39:07.065Z,52.76
2023-06-24T19:41:00.007Z,52.66
2023-06-24T19:42:52.956Z,52.84
2023-06-24T19:44:45.950Z,52.97
2023-06-24T19:46:42.341Z,52.96
2023-06-24T19:48:35.848Z,52.88
2023-06-24T19:50:28.845Z,53.08
2023-06-24T19:52:22.814Z,53.23
2023-06-24T19:54:15.625Z,53.22
2023-06-24T19:56:08.613Z,53.34
2023-06-24T19:58:01.608Z,53.44
2023-06-24T19:59:54.618Z,53.34
2023-06-24T20:01:47.743Z,53.60
2023-06-24T20:03:40.710Z,53.54
2023-06-24T20:05:33.768Z,53.49
2023-06-24T20:07:27.054Z,53.59
2023-06-24T20:09:20.987Z,53.85
2023-06-24T20:11:14.143Z,53.88
2023-06-24T20:13:07.147Z,54.21
2023-06-24T20:15:06.192Z,54.28
2023-06-24T20:16:59.185Z,54.09
2023-06-24T20:18:54.480Z,54.14
2023-06-24T20:20:47.486Z,54.15
2023-06-24T20:22:40.570Z,54.19
2023-06-24T20:24:33.588Z,54.39
2023-06-24T20:26:26.638Z,54.35
2023-06-24T20:28:20.306Z,54.97
2023-06-24T20:30:13.582Z,55.26
2023-06-24T20:32:09.106Z,55.32
2023-06-24T20:34:02.016Z,56.02
2023-06-24T20:35:55.917Z,55.99
2023-06-24T20:37:48.795Z,55.51
2023-06-24T20:39:43.742Z,55.09
2023-06-24T20:41:36.624Z,54.91
2023-06-24T20:43:31.495Z,55.16
2023-06-24T20:45:24.829Z,54.92
2023-06-24T20:47:17.792Z,54.94
2023-06-24T20:49:10.821Z,54.89
2023-06-24T20:51:03.973Z,54.91
2023-06-24T20:52:58.971Z,54.31
2023-06-24T20:54:51.866Z,54.16
2023-06-24T20:56:44.865Z,54.17
2023-06-24T20:58:41.950Z,53.89
2023-06-24T21:00:35.353Z,53.78
2023-06-24T21:02:28.658Z,53.11
2023-06-24T21:04:22.295Z,53.63
2023-06-24T21:06:15.237Z,53.25
2023-06-24T21:08:09.004Z,53.37
2023-06-24T21:10:02.056Z,53.39
2023-06-24T21:11:55.105Z,53.71
2023-06-24T21:13:48.522Z,53.47
2023-06-24T21:15:41.822Z,53.56
2023-06-24T21:17:34.821Z,53.36
2023-06-24T21:19:27.821Z,53.25
2023-06-24T21:21:20.880Z,53.57
2023-06-24T21:23:16.530Z,53.01
2023-06-24T21:25:10.465Z,53.05
2023-06-24T21:27:03.618Z,53.03
2023-06-24T21:28:56.560Z,52.95
2023-06-24T21:30:51.768Z,53.34
2023-06-24T21:32:45.266Z,53.61
2023-06-24T21:34:38.269Z,53.95
2023-06-24T21:36:32.341Z,53.78
2023-06-24T21:38:25.309Z,53.90
2023-06-24T21:40:18.242Z,53.95
2023-06-24T21:42:11.290Z,54.16
2023-06-24T21:44:04.652Z,54.01
2023-06-24T21:45:58.329Z,54.14
2023-06-24T21:47:51.437Z,54.35
2023-06-24T21:49:46.877Z,54.65
2023-06-24T21:51:41.156Z,54.62
2023-06-24T21:53:34.037Z,54.49
2023-06-24T21:55:27.057Z,54.93
2023-06-24T21:57:19.923Z,55.13
2023-06-24T21:59:14.380Z,54.99
2023-06-24T22:01:07.881Z,55.16
2023-06-24T22:03:00.875Z,55.19
2023-06-24T22:04:53.824Z,55.42
2023-06-24T22:06:46.664Z,55.35
2023-06-24T22:08:39.489Z,55.32
2023-06-24T22:10:32.598Z,55.53
2023-06-24T22:12:25.531Z,55.74
2023-06-24T22:14:19.092Z,55.85
2023-06-24T22:16:13.411Z,55.95
2023-06-24T22:18:07.651Z,55.96
2023-06-24T22:20:01.420Z,56.13
2023-06-24T22:21:54.468Z,56.39
2023-06-24T22:23:47.364Z,56.44
2023-06-24T22:25:41.022Z,56.77
2023-06-24T22:27:34.337Z,56.57
2023-06-24T22:29:27.288Z,56.74
2023-06-24T22:31:20.393Z,56.58
2023-06-24T22:33:13.498Z,56.46
2023-06-24T22:35:06.642Z,56.69
2023-06-24T22:36:59.622Z,56.77
2023-06-24T22:38:52.548Z,56.74
2023-06-24T22:40:45.713Z,56.83
2023-06-24T22:42:39.367Z,57.25
2023-06-24T22:44:32.411Z,57.58
2023-06-24T22:46:25.385Z,57.86
2023-06-24T22:48:18.406Z,58.05
2023-06-24T22:50:11.377Z,58.12
2023-06-24T22:52:04.914Z,58.23
2023-06-24T22:53:58.575Z,58.21
2023-06-24T22:55:51.628Z,58.21
2023-06-24T22:57:44.681Z,58.25
2023-06-24T22:59:37.625Z,57.99
2023-06-24T23:01:30.715Z,58.25
2023-06-24T23:03:24.446Z,58.95
2023-06-24T23:05:18.044Z,59.11
2023-06-24T23:07:11.238Z,59.18
2023-06-24T23:09:04.856Z,59.24
2023-06-24T23:10:58.301Z,59.38
2023-06-24T23:12:52.597Z,59.67
2023-06-24T23:14:46.643Z,59.69
2023-06-24T23:16:40.010Z,59.80
2023-06-24T23:18:33.466Z,59.77
2023-06-24T23:20:26.613Z,59.92
2023-06-24T23:22:22.567Z,59.89
2023-06-24T23:24:16.410Z,60.09
2023-06-24T23:26:11.459Z,60.26
2023-06-24T23:28:05.060Z,60.55
2023-06-24T23:29:58.623Z,60.67
2023-06-24T23:31:52.519Z,61.05
2023-06-24T23:33:46.163Z,60.90
2023-06-24T23:35:39.730Z,61.05
2023-06-24T23:37:33.385Z,61.46
2023-06-24T23:39:26.389Z,61.61
2023-06-24T23:41:19.597Z,61.61
2023-06-24T23:43:14.585Z,61.42
2023-06-24T23:45:08.371Z,61.31
2023-06-24T23:47:01.432Z,61.63
2023-06-24T23:48:54.659Z,61.76
2023-06-24T23:50:47.721Z,61.68
2023-06-24T23:52:40.553Z,61.76
2023-06-24T23:54:33.504Z,61.72
2023-06-24T23:56:26.451Z,61.82
2023-06-24T23:58:19.409Z,61.75
